Terminal Aerodrome Forecast
Issued by NWS

Current Version | Previous Version | Graphics & Text | Print | Product List | Glossary On
Versions: 1 2 3 4 5 6 7 8 9 10 11 12 13 14 15 16 17 18 19 20 21 22 23
216
FTUS41 KPBZ 081120
TAFMGW
TAF
KMGW 081120Z 0812/0912 19005KT P6SM SCT250
     FM081800 14005KT P6SM -RA OVC025
     FM082000 16005KT 3SM -RASN OVC020
     FM082200 20005KT 2SM -SN BR OVC015
     FM090300 22004KT 1SM -SN BR OVC008=

USA.gov is the U.S. government's official web portal to all federal, state and local government web resources and services.